CFG2406 EDDF-EDDF
Flight info
| Callsign | CFG2406 |
|---|---|
| Flight time | 0h 7m |
| Altitude | 21000 |
| Route | SULUS7S/18 SULUS Z12 LASGA T953 VOCIM T954 GOXLI STAY1/0130 GOXLI GOXLI1R |
| Aircraft | A339/H-SDE1E2E3GHIJ1J4J7LM1OP2RVWXYZ/LB1D1 |
Departure
| Time | 2026-05-07 10:02 |
|---|---|
| Airport | Frankfurt Main Airport (EDDF) |
Arrival
| Time | 2026-05-07 10:09 |
|---|---|
| Airport | Frankfurt Main Airport (EDDF) |
| Time | Latitude | Longitude | Altitude | Speed | Heading |
|---|---|---|---|---|---|
| 2026-05-07 09:53 | 50.67983 | 10.08173 | 16786 ft | 367 kts | 238° |
| 2026-05-07 09:53 | 50.66624 | 10.04827 | 16411 ft | 364 kts | 238° |
| 2026-05-07 09:53 | 50.65260 | 10.01482 | 16029 ft | 360 kts | 238° |
| 2026-05-07 09:53 | 50.63916 | 9.98181 | 15647 ft | 356 kts | 238° |
| 2026-05-07 09:54 | 50.62588 | 9.94927 | 15270 ft | 353 kts | 238° |
| 2026-05-07 09:54 | 50.61269 | 9.91700 | 14891 ft | 350 kts | 238° |
| 2026-05-07 09:54 | 50.59951 | 9.88477 | 14511 ft | 347 kts | 239° |
| 2026-05-07 09:54 | 50.58655 | 9.85307 | 14134 ft | 345 kts | 239° |
| 2026-05-07 09:55 | 50.57365 | 9.82149 | 13756 ft | 342 kts | 239° |
| 2026-05-07 09:55 | 50.56096 | 9.79021 | 13384 ft | 341 kts | 239° |
| 2026-05-07 09:55 | 50.54836 | 9.75901 | 13008 ft | 340 kts | 239° |
| 2026-05-07 09:55 | 50.53572 | 9.72785 | 12615 ft | 339 kts | 239° |
| 2026-05-07 09:56 | 50.52295 | 9.69653 | 12215 ft | 337 kts | 239° |
| 2026-05-07 09:56 | 50.51037 | 9.66566 | 11814 ft | 336 kts | 239° |
| 2026-05-07 09:56 | 50.49788 | 9.63496 | 11410 ft | 334 kts | 239° |
| 2026-05-07 09:56 | 50.48541 | 9.60441 | 11004 ft | 333 kts | 239° |
| 2026-05-07 09:57 | 50.47291 | 9.57429 | 10604 ft | 331 kts | 237° |
| 2026-05-07 09:57 | 50.45762 | 9.54714 | 10199 ft | 331 kts | 228° |
| 2026-05-07 09:57 | 50.44267 | 9.52024 | 9869 ft | 327 kts | 233° |
| 2026-05-07 09:57 | 50.42846 | 9.49262 | 9698 ft | 318 kts | 233° |
| 2026-05-07 09:58 | 50.41488 | 9.46610 | 9539 ft | 310 kts | 233° |
| 2026-05-07 09:58 | 50.40139 | 9.44002 | 9386 ft | 302 kts | 233° |
| 2026-05-07 09:58 | 50.38847 | 9.41524 | 9240 ft | 294 kts | 233° |
| 2026-05-07 09:58 | 50.37552 | 9.39059 | 9094 ft | 287 kts | 233° |
| 2026-05-07 09:59 | 50.36295 | 9.36678 | 8878 ft | 284 kts | 233° |
| 2026-05-07 09:59 | 50.35031 | 9.34293 | 8589 ft | 283 kts | 232° |
| 2026-05-07 09:59 | 50.33784 | 9.31949 | 8307 ft | 282 kts | 232° |
| 2026-05-07 09:59 | 50.32530 | 9.29594 | 8049 ft | 280 kts | 232° |
| 2026-05-07 10:00 | 50.31298 | 9.27275 | 7810 ft | 279 kts | 232° |
| 2026-05-07 10:00 | 50.30055 | 9.24936 | 7660 ft | 280 kts | 232° |
| 2026-05-07 10:00 | 50.28814 | 9.22602 | 7533 ft | 279 kts | 232° |
| 2026-05-07 10:00 | 50.27574 | 9.20274 | 7404 ft | 279 kts | 233° |
| 2026-05-07 10:01 | 50.26328 | 9.17934 | 7277 ft | 278 kts | 233° |
| 2026-05-07 10:01 | 50.25104 | 9.15635 | 7148 ft | 277 kts | 232° |
| 2026-05-07 10:01 | 50.23866 | 9.13311 | 7020 ft | 277 kts | 233° |
| 2026-05-07 10:01 | 50.22634 | 9.11002 | 6891 ft | 276 kts | 232° |
| 2026-05-07 10:02 | 50.21411 | 9.08712 | 6762 ft | 275 kts | 232° |
| 2026-05-07 10:02 | 50.20183 | 9.06419 | 6636 ft | 276 kts | 233° |
| 2026-05-07 10:02 | 50.18943 | 9.04104 | 6500 ft | 277 kts | 232° |
| 2026-05-07 10:02 | 50.17709 | 9.01802 | 6376 ft | 274 kts | 232° |
| 2026-05-07 10:03 | 50.16495 | 8.99540 | 6240 ft | 269 kts | 233° |
| 2026-05-07 10:03 | 50.15325 | 8.97313 | 6104 ft | 262 kts | 237° |
| 2026-05-07 10:03 | 50.14418 | 8.94923 | 5988 ft | 252 kts | 249° |
| 2026-05-07 10:03 | 50.13822 | 8.92435 | 5877 ft | 244 kts | 255° |
| 2026-05-07 10:04 | 50.13309 | 8.89888 | 5589 ft | 245 kts | 255° |
| 2026-05-07 10:04 | 50.12774 | 8.87370 | 5219 ft | 242 kts | 254° |
| 2026-05-07 10:04 | 50.12235 | 8.85018 | 4826 ft | 224 kts | 253° |
| 2026-05-07 10:04 | 50.11705 | 8.82815 | 4515 ft | 208 kts | 252° |
| 2026-05-07 10:05 | 50.11207 | 8.80779 | 4292 ft | 195 kts | 253° |
| 2026-05-07 10:05 | 50.10734 | 8.78845 | 4031 ft | 188 kts | 253° |
| 2026-05-07 10:05 | 50.10272 | 8.76948 | 3769 ft | 187 kts | 253° |
| 2026-05-07 10:05 | 50.09813 | 8.75063 | 3504 ft | 186 kts | 253° |
| 2026-05-07 10:06 | 50.09354 | 8.73176 | 3228 ft | 185 kts | 253° |
| 2026-05-07 10:06 | 50.08899 | 8.71301 | 2953 ft | 185 kts | 253° |
| 2026-05-07 10:06 | 50.08450 | 8.69446 | 2683 ft | 183 kts | 252° |
| 2026-05-07 10:06 | 50.08009 | 8.67624 | 2419 ft | 177 kts | 252° |
| 2026-05-07 10:07 | 50.07581 | 8.65850 | 2160 ft | 172 kts | 252° |
| 2026-05-07 10:07 | 50.07166 | 8.64130 | 1901 ft | 166 kts | 252° |
| 2026-05-07 10:07 | 50.06772 | 8.62496 | 1677 ft | 158 kts | 252° |
| 2026-05-07 10:07 | 50.06395 | 8.60927 | 1462 ft | 152 kts | 253° |
| 2026-05-07 10:08 | 50.06034 | 8.59426 | 1259 ft | 145 kts | 252° |
| 2026-05-07 10:08 | 50.05687 | 8.57979 | 1055 ft | 141 kts | 252° |
| 2026-05-07 10:08 | 50.05346 | 8.56560 | 854 ft | 136 kts | 252° |
| 2026-05-07 10:08 | 50.05023 | 8.55212 | 651 ft | 133 kts | 251° |
| 2026-05-07 10:09 | 50.04701 | 8.53858 | 453 ft | 132 kts | 252° |
| 2026-05-07 10:09 | 50.04388 | 8.52556 | 352 ft | 123 kts | 251° |
| 2026-05-07 10:09 | 50.04153 | 8.51568 | 342 ft | 68 kts | 250° |
| 2026-05-07 10:09 | 50.04030 | 8.51124 | 339 ft | 29 kts | 238° |
| 2026-05-07 10:10 | 50.03916 | 8.50926 | 336 ft | 20 kts | 221° |
| 2026-05-07 10:10 | 50.03822 | 8.50842 | 335 ft | 12 kts | 178° |
| 2026-05-07 10:10 | 50.03795 | 8.50977 | 337 ft | 20 kts | 73° |
| 2026-05-07 10:10 | 50.03845 | 8.51185 | 340 ft | 21 kts | 70° |
| 2026-05-07 10:11 | 50.03903 | 8.51430 | 341 ft | 25 kts | 70° |
| 2026-05-07 10:11 | 50.03970 | 8.51711 | 343 ft | 27 kts | 69° |
| 2026-05-07 10:11 | 50.04036 | 8.51988 | 344 ft | 26 kts | 70° |
| 2026-05-07 10:11 | 50.04099 | 8.52252 | 346 ft | 26 kts | 70° |
| 2026-05-07 10:12 | 50.04162 | 8.52515 | 349 ft | 25 kts | 70° |
| 2026-05-07 10:12 | 50.04225 | 8.52780 | 352 ft | 27 kts | 70° |
| 2026-05-07 10:12 | 50.04292 | 8.53056 | 355 ft | 26 kts | 70° |
| 2026-05-07 10:12 | 50.04358 | 8.53328 | 357 ft | 29 kts | 69° |
| 2026-05-07 10:13 | 50.04403 | 8.53628 | 358 ft | 27 kts | 84° |
| 2026-05-07 10:13 | 50.04424 | 8.53918 | 359 ft | 26 kts | 84° |
| 2026-05-07 10:13 | 50.04442 | 8.54197 | 358 ft | 25 kts | 84° |
| 2026-05-07 10:13 | 50.04453 | 8.54460 | 357 ft | 23 kts | 96° |
| 2026-05-07 10:14 | 50.04398 | 8.54668 | 357 ft | 20 kts | 131° |
| 2026-05-07 10:14 | 50.04281 | 8.54791 | 357 ft | 20 kts | 159° |
| 2026-05-07 10:14 | 50.04142 | 8.54869 | 356 ft | 21 kts | 161° |
| 2026-05-07 10:14 | 50.04024 | 8.54923 | 356 ft | 12 kts | 188° |
| 2026-05-07 10:15 | 50.03971 | 8.54819 | 355 ft | 13 kts | 249° |
| 2026-05-07 10:15 | 50.03930 | 8.54755 | 355 ft | 6 kts | 181° |
| 2026-05-07 10:15 | 50.03886 | 8.54777 | 354 ft | 5 kts | 160° |
| 2026-05-07 10:15 | 50.03870 | 8.54786 | 354 ft | 0 kts | 160° |